Pride — ZDFD7 — position and weather

sailwx.info

Track history (hours):
 
Tides and Currents Weather Stations Pressure Air Temp Water Temp Dewpoint Dewpoint Depression Visibility Wind Speed Wind Dir Waves Ship Positions

Pride

Last reported at 2014-Nov-23 21:26 UTC. Time now 2014-Nov-23 22:34 UTC.
Position N 52°29' E 002°10'.

Length 88 m; draft 5.1 m.

Type: Ship. MMSI: 236166000.

Date/timePositionNaut miles runAvg speedWind from/ knotsBaromVisibWave heightAir tempDewpointWater temp
2014-Nov-23 21:26N 52°29' E 002°10'1611.6
2014-Nov-23 20:04N 52°43' E 001°57'811.9
2014-Nov-23 19:26N 52°49' E 001°49'1112.0
2014-Nov-23 18:33N 52°55' E 001°35'1111.1
2014-Nov-23 17:33N 53°04' E 001°24'50 9.4
2014-Nov-23 12:17N 53°46' E 000°39'6 8.1
2014-Nov-23 11:33N 53°50' E 000°32'8 8.1
2014-Nov-23 10:33N 53°57' E 000°23'8 8.4
2014-Nov-23 09:33N 54°03' E 000°14'8 8.5
2014-Nov-23 08:33N 54°10' E 000°05'9 8.9
2014-Nov-23 07:33N 54°17' W 000°03'10 9.6
2014-Nov-23 06:33N 54°25' W 000°11'10 9.8
2014-Nov-23 05:33N 54°33' W 000°23'1110.6
2014-Nov-23 04:32N 54°38' W 000°39'1310.7
2014-Nov-23 03:20N 54°44' W 000°59'810.3
2014-Nov-23 02:32N 54°48' W 001°11'5 0.5
2014-Nov-22 15:08N 54°50' W 001°20'0 0.0
2014-Nov-22 14:29N 54°50' W 001°20'0 0.0
2014-Nov-22 13:26N 54°50' W 001°20'0 0.0
2014-Nov-22 11:32N 54°50' W 001°20'0 0.0
2014-Nov-22 10:23N 54°50' W 001°20'0 0.0
2014-Nov-22 09:27N 54°50' W 001°20'0 0.0
2014-Nov-21 15:18N 54°50' W 001°20'0 0.0
2014-Nov-21 09:29N 54°50' W 001°20'0 0.0
2014-Nov-20 13:29N 54°50' W 001°20'0 0.0
2014-Nov-20 11:19N 54°50' W 001°20'0 0.0
2014-Nov-19 14:09N 54°50' W 001°20'0 0.0
2014-Nov-19 13:22N 54°50' W 001°20'0 0.0
2014-Nov-19 12:33N 54°50' W 001°20'2 2.0
2014-Nov-19 11:32N 54°51' W 001°16'72 6.0
2014-Nov-18 23:33N 55°57' W 002°04'8 7.5
2014-Nov-18 22:33N 55°60' W 002°17'7 7.1
2014-Nov-18 21:33N 56°03' W 002°28'7 6.7
2014-Nov-18 20:33N 56°06' W 002°39'7 6.6
2014-Nov-18 19:33N 56°05' W 002°51'9 8.7
2014-Nov-18 18:33N 56°03' W 003°05'10 9.7
2014-Nov-18 17:33N 56°00' W 003°22'1010.4
2014-Nov-18 16:33N 56°02' W 003°40'1 1.2
2014-Nov-18 15:31N 56°02' W 003°42'0 0.0
2014-Nov-18 14:32N 56°02' W 003°42'0 0.0
2014-Nov-18 13:32N 56°02' W 003°42'0 0.0
2014-Nov-18 12:33N 56°02' W 003°42'0 0.0
2014-Nov-18 11:31N 56°02' W 003°42'0 0.0
2014-Nov-18 10:31N 56°02' W 003°42'0 0.0
2014-Nov-18 09:31N 56°02' W 003°42'0 0.0
2014-Nov-18 08:28N 56°02' W 003°42'0 0.0
2014-Nov-18 07:31N 56°02' W 003°42'0 0.0
2014-Nov-18 06:31N 56°02' W 003°42'0 0.0
2014-Nov-18 05:32N 56°02' W 003°42'0 0.0
2014-Nov-18 04:30N 56°02' W 003°42'0 0.0
2014-Nov-18 03:33N 56°02' W 003°42'0 0.0
2014-Nov-18 02:33N 56°02' W 003°42'0 0.0
2014-Nov-18 01:31N 56°02' W 003°42'0 0.0
2014-Nov-18 00:32N 56°02' W 003°42'0 0.0
2014-Nov-17 23:32N 56°02' W 003°42'0 0.0
2014-Nov-17 22:33N 56°02' W 003°42'0 0.0
2014-Nov-17 21:33N 56°02' W 003°42'0 0.0
2014-Nov-17 20:31N 56°02' W 003°42'0 0.0
2014-Nov-17 19:33N 56°02' W 003°42'0 0.0
2014-Nov-17 18:32N 56°02' W 003°42'0 0.0
2014-Nov-17 17:33N 56°02' W 003°42'0 0.0
2014-Nov-17 16:28N 56°02' W 003°42'0 0.0
2014-Nov-17 15:31N 56°02' W 003°42'0 0.0
2014-Nov-17 14:31N 56°02' W 003°42'0 0.0
2014-Nov-17 13:31N 56°02' W 003°42'0 0.0
2014-Nov-17 12:33N 56°02' W 003°42'0 0.0
2014-Nov-17 11:31N 56°02' W 003°42'0 0.0
2014-Nov-17 10:33N 56°02' W 003°42'0 0.0
2014-Nov-17 09:32N 56°02' W 003°42'0 0.0
2014-Nov-17 08:32N 56°02' W 003°42'0 0.0
2014-Nov-17 07:33N 56°02' W 003°42'0 0.0
2014-Nov-17 06:32N 56°02' W 003°42'0 0.0
2014-Nov-17 05:31N 56°02' W 003°42'0 0.0
2014-Nov-17 04:31N 56°02' W 003°42'0 0.0
2014-Nov-17 03:32N 56°02' W 003°42'0 0.0
2014-Nov-17 02:32N 56°02' W 003°42'0 0.0
2014-Nov-17 01:32N 56°02' W 003°42'0 0.0
2014-Nov-17 00:32N 56°02' W 003°42'0 0.0
2014-Nov-16 23:32N 56°02' W 003°42'0 0.0
2014-Nov-16 22:32N 56°02' W 003°42'0 0.0
2014-Nov-16 21:29N 56°02' W 003°42'0 0.0
2014-Nov-16 20:32N 56°02' W 003°42'0 0.0
2014-Nov-16 19:31N 56°02' W 003°42'0 0.0
2014-Nov-16 18:31N 56°02' W 003°42'0 0.0
2014-Nov-16 17:31N 56°02' W 003°42'0 0.0
2014-Nov-16 16:33N 56°02' W 003°42'0 0.0
2014-Nov-16 15:27N 56°02' W 003°42'0 0.0
2014-Nov-16 14:33N 56°02' W 003°42'0 0.0
2014-Nov-16 13:33N 56°02' W 003°42'0 0.0
2014-Nov-16 12:31N 56°02' W 003°42'0 0.0
2014-Nov-16 11:31N 56°02' W 003°42'0 0.0
2014-Nov-16 10:31N 56°02' W 003°42'0 0.0
2014-Nov-16 09:31N 56°02' W 003°42'0 0.0
2014-Nov-16 08:31N 56°02' W 003°42'0 0.0
2014-Nov-16 07:33N 56°02' W 003°42'0 0.0
2014-Nov-16 06:32N 56°02' W 003°42'0 0.0
2014-Nov-16 05:32N 56°02' W 003°42'0 0.0
2014-Nov-16 04:32N 56°02' W 003°42'0 0.0
2014-Nov-16 03:31N 56°02' W 003°42'0 0.0
2014-Nov-16 02:31N 56°02' W 003°42'0 0.0
2014-Nov-16 01:30N 56°02' W 003°42'0 0.0
2014-Nov-16 00:33N 56°02' W 003°42'0 0.0
2014-Nov-15 23:32N 56°02' W 003°42'0 0.0
2014-Nov-15 22:31N 56°02' W 003°42'0 0.0
2014-Nov-15 21:33N 56°02' W 003°42'0 0.0
2014-Nov-15 20:32N 56°02' W 003°42'0 0.0
2014-Nov-15 19:32N 56°02' W 003°42'0 0.0
2014-Nov-15 18:32N 56°02' W 003°42'0 0.0
2014-Nov-15 17:32N 56°02' W 003°42'0 0.0
2014-Nov-15 16:32N 56°02' W 003°42'0 0.0
2014-Nov-15 15:32N 56°02' W 003°42'0 0.0
2014-Nov-15 14:32N 56°02' W 003°42'0 0.2
2014-Nov-15 13:33N 56°02' W 003°42'3 2.7
2014-Nov-15 12:33N 56°02' W 003°37'9 9.1
2014-Nov-15 11:33N 56°01' W 003°21'9 9.0
2014-Nov-15 10:33N 56°06' W 003°07'1 0.6
2014-Nov-15 09:31N 56°06' W 003°07'0 0.0
2014-Nov-15 08:31N 56°06' W 003°07'0 0.0
2014-Nov-15 07:27N 56°06' W 003°07'0 0.0
2014-Nov-15 06:27N 56°06' W 003°07'0 0.0
2014-Nov-15 05:27N 56°06' W 003°07'3 3.7
2014-Nov-15 04:33N 56°06' W 003°01'1010.2
2014-Nov-15 03:33N 56°06' W 002°43'1010.0
2014-Nov-15 02:33N 56°03' W 002°26'1110.3
2014-Nov-15 01:32N 55°58' W 002°09'68 9.2
2014-Nov-14 18:06N 55°06' W 000°53'34 9.7
2014-Nov-14 14:34N 54°36' W 000°22'2010.0
2014-Nov-14 12:33N 54°19' W 000°04'10 9.6
2014-Nov-14 11:34N 54°11' E 000°04'9 9.2
2014-Nov-14 10:33N 54°03' E 000°14'9 8.8
2014-Nov-14 09:33N 53°57' E 000°23'9 8.7
2014-Nov-14 08:33N 53°50' E 000°33'6110.2
2014-Nov-14 02:33N 52°60' E 001°32'9 9.3
2014-Nov-14 01:33N 52°53' E 001°42'8 8.4
2014-Nov-14 00:33N 52°47' E 001°52'8 7.9
2014-Nov-13 23:32N 52°40' E 001°59'8 8.1
2014-Nov-13 22:34N 52°32' E 002°01'10 9.6
2014-Nov-13 21:32N 52°23' E 001°58'  
Track history (hours):
 
Tides and Currents Weather Stations Pressure Air Temp Water Temp Dewpoint Dewpoint Depression Visibility Wind Speed Wind Dir Waves Ship Positions

Pride

Last reported at 2014-Nov-23 21:26 UTC. Time now 2014-Nov-23 22:34 UTC.
Position N 52°29' E 002°10'.

Length 88 m; draft 5.1 m.

Type: Ship. MMSI: 236166000.

Date/timePositionNaut miles runAvg speedWind from/ knotsBaromVisibWave heightAir tempDewpointWater temp
2014-Nov-23 21:26N 52°29' E 002°10'1611.6
2014-Nov-23 20:04N 52°43' E 001°57'811.9
2014-Nov-23 19:26N 52°49' E 001°49'1112.0
2014-Nov-23 18:33N 52°55' E 001°35'1111.1
2014-Nov-23 17:33N 53°04' E 001°24'50 9.4
2014-Nov-23 12:17N 53°46' E 000°39'6 8.1
2014-Nov-23 11:33N 53°50' E 000°32'8 8.1
2014-Nov-23 10:33N 53°57' E 000°23'8 8.4
2014-Nov-23 09:33N 54°03' E 000°14'8 8.5
2014-Nov-23 08:33N 54°10' E 000°05'9 8.9
2014-Nov-23 07:33N 54°17' W 000°03'10 9.6
2014-Nov-23 06:33N 54°25' W 000°11'10 9.8
2014-Nov-23 05:33N 54°33' W 000°23'1110.6
2014-Nov-23 04:32N 54°38' W 000°39'1310.7
2014-Nov-23 03:20N 54°44' W 000°59'810.3
2014-Nov-23 02:32N 54°48' W 001°11'5 0.5
2014-Nov-22 15:08N 54°50' W 001°20'0 0.0
2014-Nov-22 14:29N 54°50' W 001°20'0 0.0
2014-Nov-22 13:26N 54°50' W 001°20'0 0.0
2014-Nov-22 11:32N 54°50' W 001°20'0 0.0
2014-Nov-22 10:23N 54°50' W 001°20'0 0.0
2014-Nov-22 09:27N 54°50' W 001°20'0 0.0
2014-Nov-21 15:18N 54°50' W 001°20'0 0.0
2014-Nov-21 09:29N 54°50' W 001°20'0 0.0
2014-Nov-20 13:29N 54°50' W 001°20'0 0.0
2014-Nov-20 11:19N 54°50' W 001°20'0 0.0
2014-Nov-19 14:09N 54°50' W 001°20'0 0.0
2014-Nov-19 13:22N 54°50' W 001°20'0 0.0
2014-Nov-19 12:33N 54°50' W 001°20'2 2.0
2014-Nov-19 11:32N 54°51' W 001°16'72 6.0
2014-Nov-18 23:33N 55°57' W 002°04'8 7.5
2014-Nov-18 22:33N 55°60' W 002°17'7 7.1
2014-Nov-18 21:33N 56°03' W 002°28'7 6.7
2014-Nov-18 20:33N 56°06' W 002°39'7 6.6
2014-Nov-18 19:33N 56°05' W 002°51'9 8.7
2014-Nov-18 18:33N 56°03' W 003°05'10 9.7
2014-Nov-18 17:33N 56°00' W 003°22'1010.4
2014-Nov-18 16:33N 56°02' W 003°40'1 1.2
2014-Nov-18 15:31N 56°02' W 003°42'0 0.0
2014-Nov-18 14:32N 56°02' W 003°42'0 0.0
2014-Nov-18 13:32N 56°02' W 003°42'0 0.0
2014-Nov-18 12:33N 56°02' W 003°42'0 0.0
2014-Nov-18 11:31N 56°02' W 003°42'0 0.0
2014-Nov-18 10:31N 56°02' W 003°42'0 0.0
2014-Nov-18 09:31N 56°02' W 003°42'0 0.0
2014-Nov-18 08:28N 56°02' W 003°42'0 0.0
2014-Nov-18 07:31N 56°02' W 003°42'0 0.0
2014-Nov-18 06:31N 56°02' W 003°42'0 0.0
2014-Nov-18 05:32N 56°02' W 003°42'0 0.0
2014-Nov-18 04:30N 56°02' W 003°42'0 0.0
2014-Nov-18 03:33N 56°02' W 003°42'0 0.0
2014-Nov-18 02:33N 56°02' W 003°42'0 0.0
2014-Nov-18 01:31N 56°02' W 003°42'0 0.0
2014-Nov-18 00:32N 56°02' W 003°42'0 0.0
2014-Nov-17 23:32N 56°02' W 003°42'0 0.0
2014-Nov-17 22:33N 56°02' W 003°42'0 0.0
2014-Nov-17 21:33N 56°02' W 003°42'0 0.0
2014-Nov-17 20:31N 56°02' W 003°42'0 0.0
2014-Nov-17 19:33N 56°02' W 003°42'0 0.0
2014-Nov-17 18:32N 56°02' W 003°42'0 0.0
2014-Nov-17 17:33N 56°02' W 003°42'0 0.0
2014-Nov-17 16:28N 56°02' W 003°42'0 0.0
2014-Nov-17 15:31N 56°02' W 003°42'0 0.0
2014-Nov-17 14:31N 56°02' W 003°42'0 0.0
2014-Nov-17 13:31N 56°02' W 003°42'0 0.0
2014-Nov-17 12:33N 56°02' W 003°42'0 0.0
2014-Nov-17 11:31N 56°02' W 003°42'0 0.0
2014-Nov-17 10:33N 56°02' W 003°42'0 0.0
2014-Nov-17 09:32N 56°02' W 003°42'0 0.0
2014-Nov-17 08:32N 56°02' W 003°42'0 0.0
2014-Nov-17 07:33N 56°02' W 003°42'0 0.0
2014-Nov-17 06:32N 56°02' W 003°42'0 0.0
2014-Nov-17 05:31N 56°02' W 003°42'0 0.0
2014-Nov-17 04:31N 56°02' W 003°42'0 0.0
2014-Nov-17 03:32N 56°02' W 003°42'0 0.0
2014-Nov-17 02:32N 56°02' W 003°42'0 0.0
2014-Nov-17 01:32N 56°02' W 003°42'0 0.0
2014-Nov-17 00:32N 56°02' W 003°42'0 0.0
2014-Nov-16 23:32N 56°02' W 003°42'0 0.0
2014-Nov-16 22:32N 56°02' W 003°42'0 0.0
2014-Nov-16 21:29N 56°02' W 003°42'0 0.0
2014-Nov-16 20:32N 56°02' W 003°42'0 0.0
2014-Nov-16 19:31N 56°02' W 003°42'0 0.0
2014-Nov-16 18:31N 56°02' W 003°42'0 0.0
2014-Nov-16 17:31N 56°02' W 003°42'0 0.0
2014-Nov-16 16:33N 56°02' W 003°42'0 0.0
2014-Nov-16 15:27N 56°02' W 003°42'0 0.0
2014-Nov-16 14:33N 56°02' W 003°42'0 0.0
2014-Nov-16 13:33N 56°02' W 003°42'0 0.0
2014-Nov-16 12:31N 56°02' W 003°42'0 0.0
2014-Nov-16 11:31N 56°02' W 003°42'0 0.0
2014-Nov-16 10:31N 56°02' W 003°42'0 0.0
2014-Nov-16 09:31N 56°02' W 003°42'0 0.0
2014-Nov-16 08:31N 56°02' W 003°42'0 0.0
2014-Nov-16 07:33N 56°02' W 003°42'0 0.0
2014-Nov-16 06:32N 56°02' W 003°42'0 0.0
2014-Nov-16 05:32N 56°02' W 003°42'0 0.0
2014-Nov-16 04:32N 56°02' W 003°42'0 0.0
2014-Nov-16 03:31N 56°02' W 003°42'0 0.0
2014-Nov-16 02:31N 56°02' W 003°42'0 0.0
2014-Nov-16 01:30N 56°02' W 003°42'0 0.0
2014-Nov-16 00:33N 56°02' W 003°42'0 0.0
2014-Nov-15 23:32N 56°02' W 003°42'0 0.0
2014-Nov-15 22:31N 56°02' W 003°42'0 0.0
2014-Nov-15 21:33N 56°02' W 003°42'0 0.0
2014-Nov-15 20:32N 56°02' W 003°42'0 0.0
2014-Nov-15 19:32N 56°02' W 003°42'0 0.0
2014-Nov-15 18:32N 56°02' W 003°42'0 0.0
2014-Nov-15 17:32N 56°02' W 003°42'0 0.0
2014-Nov-15 16:32N 56°02' W 003°42'0 0.0
2014-Nov-15 15:32N 56°02' W 003°42'0 0.0
2014-Nov-15 14:32N 56°02' W 003°42'0 0.2
2014-Nov-15 13:33N 56°02' W 003°42'3 2.7
2014-Nov-15 12:33N 56°02' W 003°37'9 9.1
2014-Nov-15 11:33N 56°01' W 003°21'9 9.0
2014-Nov-15 10:33N 56°06' W 003°07'1 0.6
2014-Nov-15 09:31N 56°06' W 003°07'0 0.0
2014-Nov-15 08:31N 56°06' W 003°07'0 0.0
2014-Nov-15 07:27N 56°06' W 003°07'0 0.0
2014-Nov-15 06:27N 56°06' W 003°07'0 0.0
2014-Nov-15 05:27N 56°06' W 003°07'3 3.7
2014-Nov-15 04:33N 56°06' W 003°01'1010.2
2014-Nov-15 03:33N 56°06' W 002°43'1010.0
2014-Nov-15 02:33N 56°03' W 002°26'1110.3
2014-Nov-15 01:32N 55°58' W 002°09'68 9.2
2014-Nov-14 18:06N 55°06' W 000°53'34 9.7
2014-Nov-14 14:34N 54°36' W 000°22'2010.0
2014-Nov-14 12:33N 54°19' W 000°04'10 9.6
2014-Nov-14 11:34N 54°11' E 000°04'9 9.2
2014-Nov-14 10:33N 54°03' E 000°14'9 8.8
2014-Nov-14 09:33N 53°57' E 000°23'9 8.7
2014-Nov-14 08:33N 53°50' E 000°33'6110.2
2014-Nov-14 02:33N 52°60' E 001°32'9 9.3
2014-Nov-14 01:33N 52°53' E 001°42'8 8.4
2014-Nov-14 00:33N 52°47' E 001°52'8 7.9
2014-Nov-13 23:32N 52°40' E 001°59'8 8.1
2014-Nov-13 22:34N 52°32' E 002°01'10 9.6
2014-Nov-13 21:32N 52°23' E 001°58'  

Dump ship's entire track history